Dutton, David
United StatesManBorn 19561994 – 2026Runner id 38317
Events
183
1994 – 2026
Best pace
11.720
km/h · 2000
Best finish
1st
of 18 · 1996
Distance raced
13,609
km · splits not double-counted
Pace over time
km/h · higher is faster
Pace over time: 183 races from 1994 to 2026, ranging from 2.07 to 12.38 kilometres per hour, where higher is faster. A second, age-graded series is drawn above it; the gap between the two is the age credit.
- Actual pace
- Age-graded pace
Results
| Date | Event | Distance | Result | Pace km/h | Placing |
|---|---|---|---|---|---|
| 1994-04-10 | Palouse 100K Relay And SoloUnited States | 100km | 10:58:45 h | 9.108 | 15/24 |
| 1994-04-24 | Falls to Gasworks Ultra RunUnited States | 75km | 6:46:10 h | 11.079 | 9/37 |
| 1994-07-30 | White River 50 Mile Trail RunUnited States | 47.6mi | 9:48:32 h | 7.810 | 15/54 |
| 1995-04-02 | Palouse 100K Relay And SoloUnited States | 100km | 10:12:58 h | 9.788 | 9/23 |
| 1995-04-23 | Falls to Gasworks Ultra RunUnited States | 75km | 7:02:16 h | 10.657 | 3/38 |
| 1995-07-29 | White River 50 Mile Trail RunUnited States | 47.6mi | 8:46:31 h | 8.730 | 12/72 |
| 1995-11-11 | Granite Falls Run 50KUnited States | 50km | 4:33:58 h | 10.950 | 5/21 |
| 1996-01-20 | Bridle Trails Winter Running FestivalUnited States | 50km | 5:24:32 h | 9.244 | 4/18 |
| 1996-03-16 | Chuckanut 50KUnited States | 50km | 4:45:07 h | 10.522 | 5/46 |
| 1996-04-14 | Palouse 100K Relay And SoloUnited States | 100km | 9:20:33 h | 10.704 | 1/18 |
| 1996-04-21 | Falls to Gasworks Ultra RunUnited States | 83km | 7:31:22 h | 11.033 | 6/29 |
| 1996-06-29 | Western States 100 Mile Endurance RunUnited States | 100mi | 29:35:43 h | 5.438 | 208/227 |
| 1996-07-27 | White River 50 Mile Trail RunUnited States | 47.6mi | 9:57:53 h | 7.688 | 22/61 |
| 1997-03-15 | Chuckanut 50KUnited States | 50km | 5:30:21 h | 9.081 | 16/59 |
| 1997-04-20 | 100km | 11:26:45 h | 8.737 | 11/15 | |
| 1997-07-26 | White River 50 Mile Trail RunUnited States | 47.6mi | 9:17:11 h | 8.249 | 16/67 |
| 1997-08-15 | American Cancer Society 24 Hour Candlelight RunUnited States | 24h | 167.371 km | 6.974 | 1/6 |
| 1997-09-27 | Cle Elum Ridge 50kUnited States | 50km | 6:02:55 h | 8.266 | 19/111 |
| 1997-11-08 | Ron Herzog 50KUnited States | 50km | 4:30:00 h | 11.111 | 2/30 |
| 1998-03-21 | Chuckanut 50KUnited States | 50km | 5:15:25 h | 9.511 | 10/69 |
| 1998-04-05 | Palouse 100K Relay And SoloUnited States | 100km | 10:04:00 h | 9.934 | 4/15 |
| 1998-04-19 | Falls to Gasworks Ultra RunUnited States | 83km | 8:18:27 h | 9.991 | 7/23 |
| 1998-07-18 | 100km | 12:54:53 h | 7.743 | 14/80 | |
| 1998-07-25 | White River 50 Mile Trail RunUnited States | 47.6mi | 8:57:14 h | 8.555 | 7/30 |
| 1998-09-05 | 100mi | 29:44:40 h | 5.411 | 18/23 | |
| 1998-09-26 | Cle Elum Ridge 50kUnited States | 50km | 7:17:53 h | 6.851 | 75/114 |
| 1998-10-25 | ORRC Autumn Leaves 50 Mile RunUnited States | 50mi | 8:51:40 h | 9.081 | 17/19 |
| 1998-11-14 | Ron Herzog 50KUnited States | 50km | 5:30:41 h | 9.072 | 10/27 |
| 1999-03-13 | Chuckanut 50KUnited States | 50km | 5:33:51 h | 8.986 | 16/83 |
| 1999-04-11 | Palouse 100K Relay And SoloUnited States | 100km | 10:09:14 h | 9.848 | 4/16 |
| 1999-04-24 | 50km | 5:33:06 h | 9.006 | 27/129 | |
| 1999-05-06 | 50mi | 8:46:00 h | 9.179 | 11/45 | |
| 1999-07-17 | 100km | 13:13:36 h | 7.560 | 26/68 | |
| 1999-07-24 | White River 50 Mile Trail RunUnited States | 47.6mi | 10:21:31 h | 7.395 | 40/60 |
| 1999-07-31 | 100mi | 30:08:22 h | 5.340 | 8/25 | |
| 1999-09-25 | 50km | 6:28:35 h | 7.720 | 36/95 | |
| 1999-10-24 | 50mi | 8:06:30 h | 9.924 | 6/21 | |
| 2000-02-06 | 50km | 4:15:59 h | 11.720 | 1/7 | |
| 2000-03-18 | Chuckanut 50KUnited States | 50km | 5:18:35 h | 9.417 | 20/124 |
| 2000-04-09 | Palouse 100K Relay And SoloUnited States | 100km | 10:30:12 h | 9.521 | 3/12 |
| 2000-04-29 | 50km | 6:02:57 h | 8.266 | 56/170 | |
| 2000-05-26 | Sri Chinmoy 24-Hour Track Run SeattleUnited States | 24h | 49.600 km | 2.067 | 19/20 |
| 2000-07-15 | 100km | 14:06:26 h | 7.089 | 35/55 | |
| 2000-07-30 | 50km | 7:59:00 h | 6.263 | 6/21 | |
| 2000-08-12 | Glacier Peak Trail RunUnited States | 34mi | 9:32:30 h | 5.735 | 17/17 |
| 2000-08-26 | 100mi | 28:04:00 h | 5.734 | 12/28 | |
| 2000-09-03 | 50km | 6:30:47 h | 7.677 | 9/18 | |
| 2000-11-11 | Ron Herzog 50KUnited States | 50km | 4:51:07 h | 10.305 | 9/25 |
| 2001-03-17 | Chuckanut 50KUnited States | 50km | 5:28:35 h | 9.130 | 39/140 |
| 2001-04-08 | Mt. Si 50 Miles Ultra RunUnited States | 50mi | 7:52:22 h | 10.221 | 10/26 |
| 2001-04-14 | Diez Vista 50K Trail RunCanada | 50km | 6:22:44 h | 7.838 | 64/122 |
| 2001-04-28 | 50km | 6:35:22 h | 7.588 | 88/154 | |
| 2001-07-21 | 100km | 15:18:05 h | 6.535 | 21/36 | |
| 2001-08-25 | 100mi | 29:30:00 h | 5.455 | 21/34 | |
| 2001-09-02 | Walk in the Park 50KCanada | 50km | 7:45:17 h | 6.448 | 31/35 |
| 2001-11-10 | Ron Herzog 50KUnited States | 50km | 5:17:45 h | 9.441 | 11/25 |
| 2002-01-12 | Bridle Trails Winter Running FestivalUnited States | 50km | 5:50:34 h | 8.558 | 13/37 |
| 2002-03-16 | Chuckanut 50KUnited States | 50km | 6:01:14 h | 8.305 | 48/118 |
| 2002-03-30 | Baker Lake 50K Ultra Trail RunUnited States | 50km | 9:39:53 h | 5.173 | 47/47 |
| 2002-04-07 | Palouse 100K Relay And SoloUnited States | 100km | 11:01:38 h | 9.068 | 5/10 |
| 2002-04-14 | Mt. Si 50 Miles Ultra RunUnited States | 50mi | 8:37:04 h | 9.337 | 13/24 |
| 2002-04-27 | 50km | 6:29:12 h | 7.708 | 82/178 | |
| 2002-07-13 | Elkhorn Mountain Endurance Run 100 KmUnited States | 100km | 15:13:25 h | 6.569 | 26/48 |
| 2002-07-27 | 50mi | 10:23:40 h | 7.741 | 63/106 | |
| 2002-08-24 | 100mi | 31:00:00 h | 5.191 | 35/40 | |
| 2002-10-26 | Baker Lake 50K Ultra Trail RunUnited States | 50km | 8:11:15 h | 6.107 | 53/55 |
| 2003-01-11 | Bridle Trails Winter Running FestivalUnited States | 50km | 5:02:21 h | 9.922 | 16/36 |
| 2003-03-15 | Chuckanut 50KUnited States | 50km | 6:06:38 h | 8.183 | 83/165 |
| 2003-04-06 | Palouse 100K Relay And SoloUnited States | 100km | 11:19:32 h | 8.830 | 6/9 |
| 2003-08-02 | 50mi | 10:43:34 h | 7.502 | 95/132 | |
| 2003-08-23 | 100mi | 27:14:00 h | 5.909 | 19/41 | |
| 2004-01-10 | Bridle Trails Winter Running FestivalUnited States | 50km | 5:18:11 h | 9.429 | 14/24 |
| 2004-02-07 | 50km | 6:09:00 h | 8.130 | 16/26 | |
| 2004-03-13 | Chuckanut 50KUnited States | 50km | 6:09:31 h | 8.119 | 111/197 |
| 2004-04-04 | Palouse 100K Relay And SoloUnited States | 100km | 11:48:43 h | 8.466 | 4/4 |
| 2004-05-10 | 50km | 6:13:10 h | 8.039 | 87/153 | |
| 2004-07-31 | 50mi | 11:45:20 h | 6.845 | 86/104 | |
| 2004-08-28 | 100mi | 27:42:00 h | 5.810 | 14/50 | |
| 2004-10-02 | Baker Lake 50K Ultra Trail RunUnited States | 50km | 6:53:16 h | 7.259 | 50/67 |
| 2004-11-13 | 50km | 5:17:22 h | 9.453 | 13/34 | |
| 2005-03-19 | Chuckanut 50KUnited States | 50km | 5:54:33 h | 8.461 | 89/210 |
| 2005-04-03 | Palouse 100K Relay And SoloUnited States | 100km | 11:09:13 h | 8.966 | 5/9 |
| 2005-04-17 | 50mi | 9:03:53 h | 8.877 | 24/38 | |
| 2005-08-20 | 50mi | 12:59:55 h | 6.190 | 13/36 | |
| 2005-08-27 | 100mi | 28:18:00 h | 5.687 | 39/70 | |
| 2005-09-19 | Cle Elum Ridge 50kUnited States | 50km | 7:51:00 h | 6.369 | 61/69 |
| 2005-10-01 | Baker Lake 50K Ultra Trail RunUnited States | 50km | 10:00:00 h | 5.000 | 101/101 |
| 2006-03-18 | Chuckanut 50KUnited States | 50km | 5:35:38 h | 8.938 | 79/242 |
| 2006-04-02 | Palouse 100K Relay And SoloUnited States | 100km | 10:58:00 h | 9.119 | 2/3 |
| 2006-04-23 | 50mi | 8:25:17 h | 9.555 | 18/48 | |
| 2006-05-20 | Watershed Preserve 12 Hr Trail RaceUnited States | 12h | 81.336 km | 6.778 | 14/30 |
| 2006-07-29 | 50mi | 14:24:07 h | 5.587 | 12/14 | |
| 2006-08-26 | 100mi | 29:56:00 h | 5.376 | 26/43 | |
| 2006-10-07 | Baker Lake 50K Ultra Trail RunUnited States | 50km | 9:30:00 h | 5.263 | 113/113 |
| 2006-11-11 | Ron Herzog 50KUnited States | 50km | 4:56:43 h | 10.111 | 6/32 |
| 2007-03-17 | Chuckanut 50KUnited States | 50km | 5:49:54 h | 8.574 | 98/260 |
| 2007-04-22 | 50mi | 8:15:53 h | 9.736 | 17/54 | |
| 2007-05-19 | Watershed Preserve 12 Hr Trail RaceUnited States | 12h | 51.901 km | 4.325 | 43/56 |
| 2007-06-02 | Blanchard Mountain Trail UltraUnited States | 50km | 6:49:00 h | 7.335 | 4/15 |
| 2007-06-09 | Lake Youngs UltraUnited States | 28.8mi | 4:29:00 h | 10.338 | 11/62 |
| 2007-07-28 | 50mi | 10:51:30 h | 7.411 | 90/144 | |
| 2007-08-04 | 50km | 8:55:10 h | 5.606 | 27/31 | |
| 2007-08-25 | 100mi | 30:03:00 h | 5.356 | 52/67 | |
| 2007-10-06 | Baker Lake 50K Ultra Trail RunUnited States | 50km | 9:00:00 h | 5.556 | 77/77 |
| 2008-01-12 | Bridle Trails Winter Running FestivalUnited States | 50km | 5:32:59 h | 9.009 | 19/44 |
| 2008-02-03 | Lord Hill Trail RunUnited States | 50km | 5:53:00 h | 8.499 | 12/30 |
| 2008-04-13 | 50mi | 8:26:17 h | 9.536 | 21/50 | |
| 2008-04-20 | 100km | 12:18:38 h | 8.123 | 3/3 | |
| 2008-05-17 | Watershed Preserve 12 Hr Trail RaceUnited States | 12h | 51.901 km | 4.325 | 42/53 |
| 2008-05-31 | The 20th Century 50K Trail RunUnited States | 50km | 5:24:30 h | 9.245 | 7/15 |
| 2008-06-14 | Lake Youngs UltraUnited States | 28.8mi | 4:40:00 h | 9.932 | 37/95 |
| 2008-07-26 | 50mi | 11:16:59 h | 7.132 | 140/202 | |
| 2009-03-07 | 37mi | 6:00:16 h | 9.917 | 5/18 | |
| 2009-04-19 | 100km | 11:54:25 h | 8.398 | 3/4 | |
| 2009-07-25 | 50mi | 12:28:32 h | 6.450 | 149/166 | |
| 2010-01-16 | 34mi | 6:37:00 h | 8.270 | 31/38 | |
| 2010-03-20 | 24h | 50.000 km | 2.083 | 67/73 | |
| 2010-04-03 | 50km | 5:25:05 h | 9.228 | 10/22 | |
| 2010-04-18 | 100km | 12:24:51 h | 8.055 | 8/8 | |
| 2010-05-15 | 12h | 69.201 km | 5.767 | 53/80 | |
| 2010-06-12 | 28.8mi | 4:50:00 h | 9.589 | 20/61 | |
| 2010-07-31 | 50mi | 12:22:22 h | 6.504 | 170/194 | |
| 2010-08-07 | 50mi | 15:07:56 h | 5.318 | 19/19 | |
| 2010-08-28 | 100mi | 31:20:52 h | 5.134 | 78/78 | |
| 2010-10-02 | Baker Lake 50K Ultra Trail RunUnited States | 50km | 7:47:00 h | 6.424 | 101/115 |
| 2010-11-06 | Ron Herzog 50KUnited States | 50km | 6:34:27 h | 7.606 | 23/35 |
| 2011-01-22 | Pigtails Run 50KUnited States | 50km | 5:21:50 h | 9.322 | 39/84 |
| 2011-04-10 | 50mi | 9:26:34 h | 8.522 | 27/43 | |
| 2011-04-17 | 100km | 12:14:13 h | 8.172 | 2/2 | |
| 2011-05-14 | 12h | 81.328 km | 6.777 | 26/68 | |
| 2011-06-11 | 28.8mi | 5:02:26 h | 9.195 | 28/53 | |
| 2011-07-30 | 50mi | 12:55:00 h | 6.230 | 227/244 | |
| 2012-01-28 | Lake Youngs Nuts RunUnited States | 50km | 5:18:00 h | 9.434 | 24/57 |
| 2012-03-03 | 37mi | 6:38:00 h | 8.977 | 8/24 | |
| 2012-03-24 | Dizzy Daze 50 kmUnited States | 50km | 5:15:26 h | 9.511 | 12/20 |
| 2012-04-22 | Palouse 100K Relay And SoloUnited States | 100km | 13:42:52 h | 7.292 | 3/3 |
| 2012-05-12 | 50km | 8:23:39 h | 5.957 | 33/48 | |
| 2012-07-28 | 50mi | 12:54:16 h | 6.236 | 254/275 | |
| 2012-11-10 | Ron Herzog 50KUnited States | 50km | 6:23:33 h | 7.822 | 7/9 |
| 2013-04-21 | Palouse 100K Relay And SoloUnited States | 100km | 12:54:47 h | 7.744 | 1/1 |
| 2013-05-11 | 50km | 8:51:21 h | 5.646 | 36/44 | |
| 2013-05-18 | 12h | 60.551 km | 5.046 | 37/64 | |
| 2013-08-03 | HURL Elkhorn 50 km Endurance RunUnited States | 50km | 9:44:27 h | 5.133 | 49/63 |
| 2014-01-11 | 50km | 5:48:43 h | 8.603 | 4/4 | |
| 2014-03-30 | Palouse 100K Relay And SoloUnited States | 100km | 12:35:39 h | 7.940 | 4/5 |
| 2014-07-26 | 50mi | 13:09:01 h | 6.119 | 220/248 | |
| 2015-03-14 | Centennial Trail RunUnited States | 37mi | 6:50:00 h | 8.714 | 2/4 |
| 2015-04-18 | Palouse 100K Relay And SoloUnited States | 100km | 13:42:30 h | 7.295 | 3/3 |
| 2015-07-05 | 50km | 6:56:42 h | 7.199 | 11/14 | |
| 2015-07-25 | 50mi | 13:21:44 h | 6.022 | 245/276 | |
| 2015-08-01 | HURL Elkhorn 50 km Endurance RunUnited States | 50km | 9:53:19 h | 5.056 | 47/69 |
| 2016-07-30 | 50mi | 12:52:04 h | 6.253 | 212/262 | |
| 2017-04-15 | 100km | 13:54:29 h | 7.190 | 3/4 | |
| 2017-05-06 | 40mi | 6:47:41 h | 9.474 | 42/149 | |
| 2017-07-15 | 10h | 61.155 km | 6.116 | 12/49 | |
| 2017-08-05 | 50mi | 14:18:27 h | 5.624 | 203/210 | |
| 2017-09-02 | 100km | 15:47:11 h | 6.335 | 1/4 | |
| 2018-01-20 | 50km | 6:15:23 h | 7.992 | 7/7 | |
| 2018-03-03 | Carl Touchstone Memorial Mississippi Trail 50 MileUnited States | 50mi | 11:14:27 h | 7.158 | 27/30 |
| 2018-06-09 | 50mi | 11:08:50 h | 7.219 | 10/21 | |
| 2018-07-21 | 50km | 6:46:31 h | 7.380 | 15/68 | |
| 2018-07-28 | 50mi | 14:17:24 h | 5.631 | 210/216 | |
| 2018-09-01 | 50km | 7:12:10 h | 6.942 | 5/14 | |
| 2019-03-02 | 50mi | 11:23:24 h | 7.065 | 41/52 | |
| 2019-03-29 | 50mi | 13:23:43 h | 6.007 | 106/128 | |
| 2019-08-03 | 52km | 10:27:11 h | 4.975 | 49/67 | |
| 2019-08-31 | 100km | 16:30:23 h | 6.058 | 3/11 | |
| 2020-03-07 | 50mi | 11:56:08 h | 6.742 | 41/43 | |
| 2021-03-26 | 50mi | 15:12:00 h | 5.294 | 143/165 | |
| 2021-09-04 | 50km | 8:38:40 h | 5.784 | 12/24 | |
| 2022-03-05 | 50km | 7:52:09 h | 6.354 | 44/63 | |
| 2022-03-25 | 50mi | 14:54:19 h | 5.399 | 91/123 | |
| 2022-09-03 | 50km | 8:22:36 h | 5.969 | 8/31 | |
| 2023-03-24 | 50mi | 16:40:15 h | 4.827 | 130/136 | |
| 2023-09-02 | 50mi | 12:22:35 h | 6.502 | 7/18 | |
| 2023-09-24 | 50mi | 13:33:41 h | 5.934 | 37/46 | |
| 2024-03-02 | 50km | 7:54:56 h | 6.317 | 35/61 | |
| 2024-09-28 | 50km | 9:57:00 h | 5.025 | 24/25 | |
| 2025-08-02 | 50km | 11:55:33 h | 4.193 | 61/62 | |
| 2025-08-30 | 50km | 7:44:51 h | 6.454 | 23/43 | |
| 2025-10-04 | 50mi | 13:27:24 h | 5.980 | 38/44 | |
| 2026-03-07 | 50km | 7:17:47 h | 6.853 | 27/74 | |
| 2026-03-27 | 50mi | 17:04:47 h | 4.711 | 162/178 |